Terminal Aerodrome Forecast
Issued by NWS

Home | Current Version | Previous Version | Text Only | Print | Product List | Glossary On
Versions: 1 2 3 4 5 6 7 8 9 10 11 12 13 14 15
145
FTUS41 KBTV 220533
TAFRUT
TAF
KRUT 220533Z 2206/2306 00000KT P6SM BKN050 BKN070
     FM221600 25006KT P6SM FEW140
     FM230200 18004KT P6SM VCSH BKN080=

USA.gov is the U.S. government's official web portal to all federal, state and local government web resources and services.